This is the latest recevied weather packets stored in our database for station/object DG9LAO-6. If no packets are shown the sender has not sent any weather packets the latest 10 day(s).
| Time | Temp. | Humidity | Pressure | Rain* | Wind** | Luminosity | Snow |
|---|---|---|---|---|---|---|---|
| 1777724351 | 23.33° C | 52% | 1018.8 hPa | 0 mm | - | - | - |
| 1777709951 | 20.56° C | 64% | 1017.1 hPa | 0 mm | - | - | - |
| 1777706951 | 18.89° C | 69% | 1017.2 hPa | 0 mm | - | - | - |
| 1777703351 | 15.56° C | 79% | 1017.2 hPa | 0 mm | - | - | - |
| 1777699157 | 11.67° C | 84% | 1019.4 hPa | 0 mm | - | - | - |
| 1777699150 | 11.67° C | 84% | 1017.3 hPa | 0 mm | - | - | - |
| 1777697357 | 10.56° C | 86% | 1019.8 hPa | 0 mm | - | - | - |
| 1777697349 | 10.56° C | 86% | 1017.4 hPa | 0 mm | - | - | - |
| 1777694349 | 8.89° C | 84% | 1017.6 hPa | 0 mm | - | - | - |
| 1777690752 | 9.44° C | 82% | 1018.3 hPa | 0 mm | - | - | - |
| 1777688952 | 9.44° C | 82% | 1018.6 hPa | 0 mm | - | - | - |
| 1777688352 | 9.44° C | 82% | 1018.6 hPa | 0 mm | - | - | - |
| 1777682351 | 10° C | 81% | 1019.8 hPa | 0 mm | - | - | - |
| 1777675149 | 11.67° C | 77% | 1021.1 hPa | 0 mm | - | - | - |
| 1777673354 | 12.22° C | 77% | 1023.2 hPa | 0 mm | - | - | - |
| 1777673349 | 12.22° C | 77% | 1021.3 hPa | 0 mm | - | - | - |
| 1777671554 | 12.78° C | 75% | 1023.4 hPa | 0 mm | - | - | - |
| 1777669153 | 13.33° C | 73% | 1023.8 hPa | 0 mm | - | - | - |
| 1777660152 | 18.33° C | 64% | 1024.4 hPa | 0 mm | - | - | - |
| 1777652352 | 21.11° C | 54% | 1023.6 hPa | 0 mm | - | - | - |
| 1777651751 | 21.11° C | 54% | 1025.8 hPa | 0 mm | - | - | - |
| 1777646351 | 21.67° C | 53% | 1025.1 hPa | 0 mm | - | - | - |
| 1777638550 | 22.22° C | 54% | 1029.3 hPa | 0 mm | - | - | - |
| 1777635550 | 21.67° C | 54% | 1033.2 hPa | 0 mm | - | - | - |
| 1777630752 | 20.56° C | 57% | 1026.4 hPa | 0 mm | - | - | - |
* Rain latest hour (hover to see other rain measurements)
** Current wind speed in m/s (hover to see current wind gust speed)